sensor_id;sensor_type;location;lat;lon;timestamp;pressure;altitude;pressure_sealevel;temperature;humidity
42771;BME280;28426;42.872;25.314;2023-04-29T00:02:06;97144.09;;;0.72;93.17
42771;BME280;28426;42.872;25.314;2023-04-29T00:04:37;97150.31;;;0.71;92.90
42771;BME280;28426;42.872;25.314;2023-04-29T00:07:08;97153.16;;;0.68;93.03
42771;BME280;28426;42.872;25.314;2023-04-29T00:09:44;97148.28;;;0.63;93.08
42771;BME280;28426;42.872;25.314;2023-04-29T00:12:15;97157.25;;;0.60;92.96
42771;BME280;28426;42.872;25.314;2023-04-29T00:14:46;97151.25;;;0.58;93.49
42771;BME280;28426;42.872;25.314;2023-04-29T00:17:17;97147.94;;;0.56;93.26
42771;BME280;28426;42.872;25.314;2023-04-29T00:19:48;97160.22;;;0.56;93.98
42771;BME280;28426;42.872;25.314;2023-04-29T00:22:19;97151.66;;;0.54;93.71
42771;BME280;28426;42.872;25.314;2023-04-29T00:24:53;97154.38;;;0.52;93.55
42771;BME280;28426;42.872;25.314;2023-04-29T00:27:23;97147.47;;;0.51;93.31
42771;BME280;28426;42.872;25.314;2023-04-29T00:29:54;97148.19;;;0.42;92.20
42771;BME280;28426;42.872;25.314;2023-04-29T00:32:25;97155.44;;;0.38;90.45
42771;BME280;28426;42.872;25.314;2023-04-29T00:34:56;97149.63;;;0.23;90.52
42771;BME280;28426;42.872;25.314;2023-04-29T00:37:30;97148.66;;;0.12;91.11
42771;BME280;28426;42.872;25.314;2023-04-29T00:40:05;97144.47;;;0.10;93.04
42771;BME280;28426;42.872;25.314;2023-04-29T00:42:36;97143.28;;;0.14;95.08
42771;BME280;28426;42.872;25.314;2023-04-29T00:45:08;97141.97;;;0.20;95.27
42771;BME280;28426;42.872;25.314;2023-04-29T00:47:40;97135.53;;;0.24;94.88
42771;BME280;28426;42.872;25.314;2023-04-29T00:50:11;97132.81;;;0.25;94.83
42771;BME280;28426;42.872;25.314;2023-04-29T00:52:43;97130.03;;;0.27;94.97
42771;BME280;28426;42.872;25.314;2023-04-29T00:55:17;97122.16;;;0.27;94.85
42771;BME280;28426;42.872;25.314;2023-04-29T00:57:48;97115.13;;;0.28;94.70
42771;BME280;28426;42.872;25.314;2023-04-29T01:00:20;97125.63;;;0.28;94.66
42771;BME280;28426;42.872;25.314;2023-04-29T01:02:53;97111.66;;;0.27;94.67
42771;BME280;28426;42.872;25.314;2023-04-29T01:05:24;97108.09;;;0.28;94.33
42771;BME280;28426;42.872;25.314;2023-04-29T01:08:06;97111.66;;;0.27;93.90
42771;BME280;28426;42.872;25.314;2023-04-29T01:10:51;97102.50;;;0.21;93.61
42771;BME280;28426;42.872;25.314;2023-04-29T01:13:29;97110.59;;;0.18;93.79
42771;BME280;28426;42.872;25.314;2023-04-29T01:16:03;97105.59;;;0.15;94.08
42771;BME280;28426;42.872;25.314;2023-04-29T01:18:40;97097.97;;;0.12;94.30
42771;BME280;28426;42.872;25.314;2023-04-29T01:21:17;97101.69;;;0.09;93.93
42771;BME280;28426;42.872;25.314;2023-04-29T01:23:51;97092.22;;;0.07;94.45
42771;BME280;28426;42.872;25.314;2023-04-29T01:26:26;97101.91;;;0.06;94.71
42771;BME280;28426;42.872;25.314;2023-04-29T01:29:20;97091.19;;;0.09;95.68
42771;BME280;28426;42.872;25.314;2023-04-29T01:32:00;97091.19;;;0.09;94.81
42771;BME280;28426;42.872;25.314;2023-04-29T01:34:42;97080.69;;;0.09;95.41
42771;BME280;28426;42.872;25.314;2023-04-29T01:37:18;97083.16;;;0.11;95.33
42771;BME280;28426;42.872;25.314;2023-04-29T01:39:59;97075.66;;;0.06;94.98
42771;BME280;28426;42.872;25.314;2023-04-29T01:42:44;97080.53;;;0.11;94.38
42771;BME280;28426;42.872;25.314;2023-04-29T01:45:18;97075.66;;;0.06;94.65
42771;BME280;28426;42.872;25.314;2023-04-29T01:47:52;97085.31;;;0.06;94.75
42771;BME280;28426;42.872;25.314;2023-04-29T01:50:25;97071.50;;;0.04;94.76
42771;BME280;28426;42.872;25.314;2023-04-29T01:53:04;97068.97;;;0.02;95.01
42771;BME280;28426;42.872;25.314;2023-04-29T01:55:38;97067.31;;;0.01;94.66
42771;BME280;28426;42.872;25.314;2023-04-29T01:58:26;97074.47;;;-0.01;94.60
42771;BME280;28426;42.872;25.314;2023-04-29T02:01:10;97069.31;;;-0.03;94.49
42771;BME280;28426;42.872;25.314;2023-04-29T02:03:42;97073.75;;;-0.03;95.14
42771;BME280;28426;42.872;25.314;2023-04-29T02:06:15;97074.72;;;-0.04;94.50
42771;BME280;28426;42.872;25.314;2023-04-29T02:08:50;97071.59;;;-0.09;94.23
42771;BME280;28426;42.872;25.314;2023-04-29T02:11:24;97076.34;;;-0.15;93.48
42771;BME280;28426;42.872;25.314;2023-04-29T02:13:56;97072.09;;;-0.27;91.26
42771;BME280;28426;42.872;25.314;2023-04-29T02:16:27;97069.75;;;-0.43;90.79
42771;BME280;28426;42.872;25.314;2023-04-29T02:19:01;97082.75;;;-0.53;91.75
42771;BME280;28426;42.872;25.314;2023-04-29T02:21:32;97080.34;;;-0.56;95.12
42771;BME280;28426;42.872;25.314;2023-04-29T02:24:06;97067.72;;;-0.51;96.25
42771;BME280;28426;42.872;25.314;2023-04-29T02:26:39;97062.03;;;-0.45;96.23
42771;BME280;28426;42.872;25.314;2023-04-29T02:29:10;97077.53;;;-0.42;95.88
42771;BME280;28426;42.872;25.314;2023-04-29T02:31:43;97066.09;;;-0.41;95.91
42771;BME280;28426;42.872;25.314;2023-04-29T02:34:16;97070.38;;;-0.40;95.45
42771;BME280;28426;42.872;25.314;2023-04-29T02:36:46;97065.16;;;-0.40;95.27
42771;BME280;28426;42.872;25.314;2023-04-29T02:39:21;97064.41;;;-0.42;95.81
42771;BME280;28426;42.872;25.314;2023-04-29T02:41:57;97059.16;;;-0.42;95.58
42771;BME280;28426;42.872;25.314;2023-04-29T02:44:28;97067.78;;;-0.40;95.62
42771;BME280;28426;42.872;25.314;2023-04-29T02:47:00;97059.91;;;-0.40;95.24
42771;BME280;28426;42.872;25.314;2023-04-29T02:49:31;97050.38;;;-0.41;95.60
42771;BME280;28426;42.872;25.314;2023-04-29T02:52:02;97049.41;;;-0.40;95.38
42771;BME280;28426;42.872;25.314;2023-04-29T02:54:34;97050.47;;;-0.42;95.22
42771;BME280;28426;42.872;25.314;2023-04-29T02:57:08;97048.94;;;-0.45;95.04
42771;BME280;28426;42.872;25.314;2023-04-29T02:59:39;97049.03;;;-0.46;95.04
42771;BME280;28426;42.872;25.314;2023-04-29T03:02:10;97040.44;;;-0.48;95.22
42771;BME280;28426;42.872;25.314;2023-04-29T03:04:44;97038.66;;;-0.48;95.31
42771;BME280;28426;42.872;25.314;2023-04-29T03:07:15;97040.56;;;-0.50;95.94
42771;BME280;28426;42.872;25.314;2023-04-29T03:09:46;97041.53;;;-0.51;95.72
42771;BME280;28426;42.872;25.314;2023-04-29T03:12:20;97038.19;;;-0.53;95.44
42771;BME280;28426;42.872;25.314;2023-04-29T03:14:52;97045.94;;;-0.51;95.82
42771;BME280;28426;42.872;25.314;2023-04-29T03:17:23;97048.69;;;-0.53;95.67
42771;BME280;28426;42.872;25.314;2023-04-29T03:19:55;97050.34;;;-0.52;95.37
42771;BME280;28426;42.872;25.314;2023-04-29T03:22:26;97062.50;;;-0.51;95.48
42771;BME280;28426;42.872;25.314;2023-04-29T03:24:57;97052.97;;;-0.52;95.22
42771;BME280;28426;42.872;25.314;2023-04-29T03:27:33;97068.56;;;-0.50;95.73
42771;BME280;28426;42.872;25.314;2023-04-29T03:30:06;97067.63;;;-0.49;95.91
42771;BME280;28426;42.872;25.314;2023-04-29T03:32:44;97057.50;;;-0.54;95.31
42771;BME280;28426;42.872;25.314;2023-04-29T03:35:14;97061.53;;;-0.50;95.85
42771;BME280;28426;42.872;25.314;2023-04-29T03:38:20;97069.41;;;-0.50;96.58
42771;BME280;28426;42.872;25.314;2023-04-29T03:40:54;97065.59;;;-0.46;96.45
42771;BME280;28426;42.872;25.314;2023-04-29T03:43:27;97073.34;;;-0.44;96.81
42771;BME280;28426;42.872;25.314;2023-04-29T03:45:58;97069.53;;;-0.40;96.66
42771;BME280;28426;42.872;25.314;2023-04-29T03:48:29;97070.13;;;-0.36;96.11
42771;BME280;28426;42.872;25.314;2023-04-29T03:51:01;97073.50;;;-0.34;95.55
42771;BME280;28426;42.872;25.314;2023-04-29T03:53:32;97072.41;;;-0.32;95.68
42771;BME280;28426;42.872;25.314;2023-04-29T03:56:05;97072.31;;;-0.30;95.42
42771;BME280;28426;42.872;25.314;2023-04-29T03:58:38;97078.13;;;-0.27;95.47
42771;BME280;28426;42.872;25.314;2023-04-29T04:01:10;97085.66;;;-0.22;95.64
42771;BME280;28426;42.872;25.314;2023-04-29T04:03:44;97081.00;;;-0.18;95.55
42771;BME280;28426;42.872;25.314;2023-04-29T04:06:15;97089.25;;;-0.11;96.12
42771;BME280;28426;42.872;25.314;2023-04-29T04:08:47;97082.59;;;-0.04;95.91
42771;BME280;28426;42.872;25.314;2023-04-29T04:11:22;97082.81;;;0.04;96.00
42771;BME280;28426;42.872;25.314;2023-04-29T04:14:01;97087.34;;;0.13;95.99
42771;BME280;28426;42.872;25.314;2023-04-29T04:16:32;97083.28;;;0.21;95.65
42771;BME280;28426;42.872;25.314;2023-04-29T04:19:03;97087.81;;;0.30;95.52
42771;BME280;28426;42.872;25.314;2023-04-29T04:21:38;97084.22;;;0.43;95.14
42771;BME280;28426;42.872;25.314;2023-04-29T04:24:10;97080.88;;;0.52;94.95
42771;BME280;28426;42.872;25.314;2023-04-29T04:26:41;97076.81;;;0.59;94.23
42771;BME280;28426;42.872;25.314;2023-04-29T04:29:23;97070.69;;;0.70;94.42
42771;BME280;28426;42.872;25.314;2023-04-29T04:32:06;97074.59;;;0.76;93.68
42771;BME280;28426;42.872;25.314;2023-04-29T04:34:38;97071.50;;;0.82;93.79
42771;BME280;28426;42.872;25.314;2023-04-29T04:37:09;97065.72;;;0.88;93.81
42771;BME280;28426;42.872;25.314;2023-04-29T04:39:43;97059.03;;;0.96;93.33
42771;BME280;28426;42.872;25.314;2023-04-29T04:42:15;97057.53;;;1.03;93.50
42771;BME280;28426;42.872;25.314;2023-04-29T04:44:51;97066.81;;;1.19;93.46
42771;BME280;28426;42.872;25.314;2023-04-29T04:47:36;97069.81;;;1.35;93.40
42771;BME280;28426;42.872;25.314;2023-04-29T04:50:20;97070.09;;;1.53;93.04
42771;BME280;28426;42.872;25.314;2023-04-29T04:52:53;97085.41;;;1.69;91.99
42771;BME280;28426;42.872;25.314;2023-04-29T04:55:44;97075.50;;;1.83;91.43
42771;BME280;28426;42.872;25.314;2023-04-29T04:58:17;97081.41;;;1.96;90.29
42771;BME280;28426;42.872;25.314;2023-04-29T05:00:50;97083.97;;;2.08;88.83
42771;BME280;28426;42.872;25.314;2023-04-29T05:03:21;97082.44;;;2.15;87.92
42771;BME280;28426;42.872;25.314;2023-04-29T05:05:54;97077.59;;;2.20;87.28
42771;BME280;28426;42.872;25.314;2023-04-29T05:08:25;97079.00;;;2.25;87.10
42771;BME280;28426;42.872;25.314;2023-04-29T05:10:58;97069.88;;;2.29;87.17
42771;BME280;28426;42.872;25.314;2023-04-29T05:13:29;97074.63;;;2.35;86.48
42771;BME280;28426;42.872;25.314;2023-04-29T05:16:05;97072.13;;;2.43;86.20
42771;BME280;28426;42.872;25.314;2023-04-29T05:18:39;97069.41;;;2.55;86.56
42771;BME280;28426;42.872;25.314;2023-04-29T05:21:12;97064.03;;;2.66;86.11
42771;BME280;28426;42.872;25.314;2023-04-29T05:23:45;97060.59;;;2.76;86.09
42771;BME280;28426;42.872;25.314;2023-04-29T05:26:16;97065.31;;;3.01;88.82
42771;BME280;28426;42.872;25.314;2023-04-29T05:28:47;97054.34;;;3.26;85.06
42771;BME280;28426;42.872;25.314;2023-04-29T05:31:22;97059.75;;;3.24;81.56
42771;BME280;28426;42.872;25.314;2023-04-29T05:33:56;97059.75;;;3.24;89.28
42771;BME280;28426;42.872;25.314;2023-04-29T05:36:27;97061.97;;;3.39;86.99
42771;BME280;28426;42.872;25.314;2023-04-29T05:38:58;97042.66;;;3.48;86.66
42771;BME280;28426;42.872;25.314;2023-04-29T05:41:29;97053.97;;;3.78;86.71
42771;BME280;28426;42.872;25.314;2023-04-29T05:44:26;97061.25;;;4.04;86.21
42771;BME280;28426;42.872;25.314;2023-04-29T05:46:59;97055.59;;;4.27;85.87
42771;BME280;28426;42.872;25.314;2023-04-29T05:49:30;97055.19;;;4.50;85.32
42771;BME280;28426;42.872;25.314;2023-04-29T05:52:01;97058.13;;;4.75;84.18
42771;BME280;28426;42.872;25.314;2023-04-29T05:54:38;97063.72;;;5.08;84.58
42771;BME280;28426;42.872;25.314;2023-04-29T05:57:09;97058.41;;;5.45;84.30
42771;BME280;28426;42.872;25.314;2023-04-29T05:59:40;97056.38;;;5.83;83.69
42771;BME280;28426;42.872;25.314;2023-04-29T06:02:13;97048.81;;;6.23;83.38
42771;BME280;28426;42.872;25.314;2023-04-29T06:04:44;97048.31;;;6.63;81.94
42771;BME280;28426;42.872;25.314;2023-04-29T06:07:34;97031.66;;;6.96;80.86
42771;BME280;28426;42.872;25.314;2023-04-29T06:10:19;97044.41;;;7.50;79.18
42771;BME280;28426;42.872;25.314;2023-04-29T06:12:50;97040.19;;;7.97;79.13
42771;BME280;28426;42.872;25.314;2023-04-29T06:15:21;97038.69;;;8.60;77.61
42771;BME280;28426;42.872;25.314;2023-04-29T06:17:54;97038.22;;;9.35;77.87
42771;BME280;28426;42.872;25.314;2023-04-29T06:20:28;97027.47;;;10.12;75.88
42771;BME280;28426;42.872;25.314;2023-04-29T06:23:01;97024.81;;;10.94;74.76
42771;BME280;28426;42.872;25.314;2023-04-29T06:25:32;97023.88;;;11.74;72.35
42771;BME280;28426;42.872;25.314;2023-04-29T06:28:05;97021.03;;;12.53;70.04
42771;BME280;28426;42.872;25.314;2023-04-29T06:30:36;97022.25;;;13.26;68.17
42771;BME280;28426;42.872;25.314;2023-04-29T06:33:10;97025.38;;;13.97;61.60
42771;BME280;28426;42.872;25.314;2023-04-29T06:35:41;97023.53;;;14.64;61.87
42771;BME280;28426;42.872;25.314;2023-04-29T06:38:39;97015.28;;;15.37;58.18
42771;BME280;28426;42.872;25.314;2023-04-29T06:41:28;97016.38;;;16.05;55.63
42771;BME280;28426;42.872;25.314;2023-04-29T06:44:19;97012.56;;;16.69;53.59
42771;BME280;28426;42.872;25.314;2023-04-29T06:47:18;97016.09;;;17.31;50.73
42771;BME280;28426;42.872;25.314;2023-04-29T06:50:08;97007.25;;;17.78;48.21
42771;BME280;28426;42.872;25.314;2023-04-29T06:52:39;97004.72;;;18.20;47.43
42771;BME280;28426;42.872;25.314;2023-04-29T06:55:10;97006.38;;;18.62;44.62
42771;BME280;28426;42.872;25.314;2023-04-29T06:57:42;97010.81;;;19.09;44.75
42771;BME280;28426;42.872;25.314;2023-04-29T07:00:13;97003.66;;;19.49;43.64
42771;BME280;28426;42.872;25.314;2023-04-29T07:02:47;96994.78;;;19.88;42.20
42771;BME280;28426;42.872;25.314;2023-04-29T07:05:21;96998.03;;;20.24;39.99
42771;BME280;28426;42.872;25.314;2023-04-29T07:07:52;96998.31;;;20.45;39.19
42771;BME280;28426;42.872;25.314;2023-04-29T07:10:24;96989.66;;;20.71;38.20
42771;BME280;28426;42.872;25.314;2023-04-29T07:12:56;96985.34;;;20.97;37.24
42771;BME280;28426;42.872;25.314;2023-04-29T07:15:27;96985.38;;;21.30;36.25
42771;BME280;28426;42.872;25.314;2023-04-29T07:17:59;96993.47;;;21.52;34.55
42771;BME280;28426;42.872;25.314;2023-04-29T07:20:35;96991.50;;;21.75;34.49
42771;BME280;28426;42.872;25.314;2023-04-29T07:23:06;96991.59;;;21.91;33.27
42771;BME280;28426;42.872;25.314;2023-04-29T07:25:37;96991.13;;;22.04;32.24
42771;BME280;28426;42.872;25.314;2023-04-29T07:28:08;96977.59;;;22.15;31.66
42771;BME280;28426;42.872;25.314;2023-04-29T07:30:39;96986.41;;;22.38;31.92
42771;BME280;28426;42.872;25.314;2023-04-29T07:33:09;96987.63;;;22.63;30.51
42771;BME280;28426;42.872;25.314;2023-04-29T07:35:43;96981.16;;;22.79;30.29
42771;BME280;28426;42.872;25.314;2023-04-29T07:38:14;96980.66;;;22.98;30.05
42771;BME280;28426;42.872;25.314;2023-04-29T07:40:45;96981.50;;;23.14;28.75
42771;BME280;28426;42.872;25.314;2023-04-29T07:43:16;96978.78;;;23.09;27.54
42771;BME280;28426;42.872;25.314;2023-04-29T07:45:48;96980.09;;;22.85;27.26
42771;BME280;28426;42.872;25.314;2023-04-29T07:48:20;96968.88;;;22.71;28.20
42771;BME280;28426;42.872;25.314;2023-04-29T07:50:55;96974.91;;;22.79;28.96
42771;BME280;28426;42.872;25.314;2023-04-29T07:53:26;96969.22;;;22.85;27.79
42771;BME280;28426;42.872;25.314;2023-04-29T07:55:57;96971.91;;;22.80;27.67
42771;BME280;28426;42.872;25.314;2023-04-29T07:58:28;96971.91;;;22.80;26.54
42771;BME280;28426;42.872;25.314;2023-04-29T08:01:04;96966.16;;;22.66;26.17
42771;BME280;28426;42.872;25.314;2023-04-29T08:03:36;96959.34;;;22.64;26.98
42771;BME280;28426;42.872;25.314;2023-04-29T08:06:12;96958.84;;;22.77;27.03
42771;BME280;28426;42.872;25.314;2023-04-29T08:08:45;96960.25;;;23.01;27.35
42771;BME280;28426;42.872;25.314;2023-04-29T08:11:18;96949.69;;;23.25;27.61
42771;BME280;28426;42.872;25.314;2023-04-29T08:13:52;96948.63;;;23.52;26.58
42771;BME280;28426;42.872;25.314;2023-04-29T08:16:25;96942.31;;;23.83;26.49
42771;BME280;28426;42.872;25.314;2023-04-29T08:18:57;96939.00;;;24.17;26.42
42771;BME280;28426;42.872;25.314;2023-04-29T08:21:31;96948.44;;;24.46;26.00
42771;BME280;28426;42.872;25.314;2023-04-29T08:24:02;96946.69;;;24.65;25.42
42771;BME280;28426;42.872;25.314;2023-04-29T08:26:33;96936.78;;;24.80;24.73
42771;BME280;28426;42.872;25.314;2023-04-29T08:29:03;96936.75;;;24.90;25.20
42771;BME280;28426;42.872;25.314;2023-04-29T08:31:34;96942.94;;;25.01;24.56
42771;BME280;28426;42.872;25.314;2023-04-29T08:34:05;96942.06;;;25.11;24.32
42771;BME280;28426;42.872;25.314;2023-04-29T08:36:38;96929.72;;;25.19;24.61
42771;BME280;28426;42.872;25.314;2023-04-29T08:39:09;96927.00;;;25.19;23.95
42771;BME280;28426;42.872;25.314;2023-04-29T08:41:40;96925.94;;;25.15;23.65
42771;BME280;28426;42.872;25.314;2023-04-29T08:44:16;96934.44;;;25.13;23.88
42771;BME280;28426;42.872;25.314;2023-04-29T08:46:48;96934.59;;;24.87;22.82
42771;BME280;28426;42.872;25.314;2023-04-29T08:49:19;96942.38;;;24.59;23.08
42771;BME280;28426;42.872;25.314;2023-04-29T08:51:53;96937.34;;;24.21;22.44
42771;BME280;28426;42.872;25.314;2023-04-29T08:54:23;96944.72;;;23.95;22.75
42771;BME280;28426;42.872;25.314;2023-04-29T08:56:55;96934.97;;;23.78;23.96
42771;BME280;28426;42.872;25.314;2023-04-29T08:59:28;96926.78;;;23.73;23.24
42771;BME280;28426;42.872;25.314;2023-04-29T09:02:00;96925.72;;;23.69;23.29
42771;BME280;28426;42.872;25.314;2023-04-29T09:04:39;96936.91;;;23.67;23.07
42771;BME280;28426;42.872;25.314;2023-04-29T09:07:14;96925.72;;;23.58;23.32
42771;BME280;28426;42.872;25.314;2023-04-29T09:09:46;96925.19;;;23.61;24.69
42771;BME280;28426;42.872;25.314;2023-04-29T09:12:18;96933.34;;;23.72;24.73
42771;BME280;28426;42.872;25.314;2023-04-29T09:14:48;96927.63;;;23.68;22.98
42771;BME280;28426;42.872;25.314;2023-04-29T09:17:37;96927.91;;;23.46;22.94
42771;BME280;28426;42.872;25.314;2023-04-29T09:20:26;96926.81;;;23.26;21.54
42771;BME280;28426;42.872;25.314;2023-04-29T09:23:01;96921.91;;;23.07;22.96
42771;BME280;28426;42.872;25.314;2023-04-29T09:25:33;96912.09;;;22.91;23.49
42771;BME280;28426;42.872;25.314;2023-04-29T09:28:14;96902.50;;;22.57;23.22
42771;BME280;28426;42.872;25.314;2023-04-29T09:30:45;96908.72;;;22.52;23.70
42771;BME280;28426;42.872;25.314;2023-04-29T09:33:17;96906.25;;;22.45;23.94
42771;BME280;28426;42.872;25.314;2023-04-29T09:35:48;96909.22;;;22.39;23.88
42771;BME280;28426;42.872;25.314;2023-04-29T09:38:21;96899.91;;;22.19;23.73
42771;BME280;28426;42.872;25.314;2023-04-29T09:40:52;96892.81;;;22.07;24.91
42771;BME280;28426;42.872;25.314;2023-04-29T09:43:26;96899.03;;;22.08;25.65
42771;BME280;28426;42.872;25.314;2023-04-29T09:45:57;96893.91;;;22.12;25.65
42771;BME280;28426;42.872;25.314;2023-04-29T09:48:30;96897.63;;;21.95;24.10
42771;BME280;28426;42.872;25.314;2023-04-29T09:51:03;96886.69;;;21.79;23.98
42771;BME280;28426;42.872;25.314;2023-04-29T09:53:36;96873.63;;;21.76;25.14
42771;BME280;28426;42.872;25.314;2023-04-29T09:56:07;96879.63;;;21.84;25.63
42771;BME280;28426;42.872;25.314;2023-04-29T09:58:38;96876.41;;;21.92;25.60
42771;BME280;28426;42.872;25.314;2023-04-29T10:01:09;96878.34;;;21.97;25.17
42771;BME280;28426;42.872;25.314;2023-04-29T10:03:41;96870.47;;;21.95;25.00
42771;BME280;28426;42.872;25.314;2023-04-29T10:06:13;96863.97;;;22.01;24.69
42771;BME280;28426;42.872;25.314;2023-04-29T10:08:49;96873.78;;;22.07;24.71
42771;BME280;28426;42.872;25.314;2023-04-29T10:11:20;96874.06;;;22.16;25.87
42771;BME280;28426;42.872;25.314;2023-04-29T10:13:52;96865.94;;;22.21;24.61
42771;BME280;28426;42.872;25.314;2023-04-29T10:16:27;96856.56;;;22.66;23.23
42771;BME280;28426;42.872;25.314;2023-04-29T10:19:03;96856.06;;;23.42;21.84
42771;BME280;28426;42.872;25.314;2023-04-29T10:21:35;96852.59;;;24.12;21.38
42771;BME280;28426;42.872;25.314;2023-04-29T10:24:09;96847.72;;;24.54;20.86
42771;BME280;28426;42.872;25.314;2023-04-29T10:26:42;96862.03;;;24.86;20.18
42771;BME280;28426;42.872;25.314;2023-04-29T10:29:18;96856.06;;;24.74;20.04
42771;BME280;28426;42.872;25.314;2023-04-29T10:31:49;96852.63;;;24.58;19.46
42771;BME280;28426;42.872;25.314;2023-04-29T10:34:21;96844.28;;;24.38;20.09
42771;BME280;28426;42.872;25.314;2023-04-29T10:36:53;96845.38;;;24.37;20.52
42771;BME280;28426;42.872;25.314;2023-04-29T10:39:45;96845.97;;;24.29;20.48
42771;BME280;28426;42.872;25.314;2023-04-29T10:42:27;96844.97;;;24.14;21.53
42771;BME280;28426;42.872;25.314;2023-04-29T10:45:20;96848.22;;;24.16;21.52
42771;BME280;28426;42.872;25.314;2023-04-29T10:48:12;96860.72;;;24.17;19.99
42771;BME280;28426;42.872;25.314;2023-04-29T10:51:00;96850.69;;;23.97;20.19
42771;BME280;28426;42.872;25.314;2023-04-29T10:53:34;96850.50;;;23.73;20.23
42771;BME280;28426;42.872;25.314;2023-04-29T10:56:09;96854.66;;;23.55;20.78
42771;BME280;28426;42.872;25.314;2023-04-29T10:58:44;96841.06;;;23.49;21.79
42771;BME280;28426;42.872;25.314;2023-04-29T11:01:16;96842.94;;;23.54;21.48
42771;BME280;28426;42.872;25.314;2023-04-29T11:03:49;96840.75;;;23.67;21.11
42771;BME280;28426;42.872;25.314;2023-04-29T11:06:23;96842.09;;;23.64;20.22
42771;BME280;28426;42.872;25.314;2023-04-29T11:09:02;96845.16;;;23.16;20.24
42771;BME280;28426;42.872;25.314;2023-04-29T11:11:45;96849.47;;;22.54;20.88
42771;BME280;28426;42.872;25.314;2023-04-29T11:14:23;96857.00;;;22.31;22.21
42771;BME280;28426;42.872;25.314;2023-04-29T11:16:56;96847.22;;;22.25;21.96
42771;BME280;28426;42.872;25.314;2023-04-29T11:19:31;96840.38;;;22.12;22.85
42771;BME280;28426;42.872;25.314;2023-04-29T11:22:14;96839.00;;;22.15;21.85
42771;BME280;28426;42.872;25.314;2023-04-29T11:24:55;96832.47;;;22.05;21.93
42771;BME280;28426;42.872;25.314;2023-04-29T11:27:36;96826.72;;;21.91;21.97
42771;BME280;28426;42.872;25.314;2023-04-29T11:30:09;96833.75;;;21.82;22.33
42771;BME280;28426;42.872;25.314;2023-04-29T11:32:40;96836.00;;;21.52;22.84
42771;BME280;28426;42.872;25.314;2023-04-29T11:35:13;96836.06;;;21.20;23.64
42771;BME280;28426;42.872;25.314;2023-04-29T11:37:45;96829.97;;;20.74;23.41
42771;BME280;28426;42.872;25.314;2023-04-29T11:40:16;96827.81;;;20.44;23.91
42771;BME280;28426;42.872;25.314;2023-04-29T11:42:50;96825.81;;;20.06;24.59
42771;BME280;28426;42.872;25.314;2023-04-29T11:45:21;96833.78;;;19.73;24.46
42771;BME280;28426;42.872;25.314;2023-04-29T11:47:52;96831.19;;;19.44;25.12
42771;BME280;28426;42.872;25.314;2023-04-29T11:50:23;96822.31;;;19.27;25.42
42771;BME280;28426;42.872;25.314;2023-04-29T11:52:56;96814.88;;;19.17;25.97
42771;BME280;28426;42.872;25.314;2023-04-29T11:55:28;96815.84;;;19.11;26.75
42771;BME280;28426;42.872;25.314;2023-04-29T11:58:03;96813.28;;;19.04;26.72
42771;BME280;28426;42.872;25.314;2023-04-29T12:00:34;96803.47;;;18.98;26.72
42771;BME280;28426;42.872;25.314;2023-04-29T12:03:12;96802.91;;;18.95;27.04
42771;BME280;28426;42.872;25.314;2023-04-29T12:05:46;96801.81;;;18.97;27.28
42771;BME280;28426;42.872;25.314;2023-04-29T12:08:18;96787.56;;;19.01;27.67
42771;BME280;28426;42.872;25.314;2023-04-29T12:10:50;96790.00;;;19.03;27.40
42771;BME280;28426;42.872;25.314;2023-04-29T12:13:26;96784.59;;;19.03;27.21
42771;BME280;28426;42.872;25.314;2023-04-29T12:15:58;96786.75;;;19.01;27.77
42771;BME280;28426;42.872;25.314;2023-04-29T12:18:29;96781.34;;;19.01;27.80
42771;BME280;28426;42.872;25.314;2023-04-29T12:21:00;96785.13;;;19.00;27.60
42771;BME280;28426;42.872;25.314;2023-04-29T12:23:30;96785.13;;;19.00;27.56
42771;BME280;28426;42.872;25.314;2023-04-29T12:26:01;96781.59;;;18.99;28.15
42771;BME280;28426;42.872;25.314;2023-04-29T12:28:34;96777.25;;;18.98;27.93
42771;BME280;28426;42.872;25.314;2023-04-29T12:31:05;96772.56;;;18.93;27.61
42771;BME280;28426;42.872;25.314;2023-04-29T12:33:41;96774.06;;;18.84;27.99
42771;BME280;28426;42.872;25.314;2023-04-29T12:36:16;96765.28;;;18.77;27.86
42771;BME280;28426;42.872;25.314;2023-04-29T12:38:48;96766.59;;;18.74;28.22
42771;BME280;28426;42.872;25.314;2023-04-29T12:41:35;96768.06;;;18.65;27.27
42771;BME280;28426;42.872;25.314;2023-04-29T12:44:09;96767.69;;;18.56;28.14
42771;BME280;28426;42.872;25.314;2023-04-29T12:46:40;96764.91;;;18.51;28.38
42771;BME280;28426;42.872;25.314;2023-04-29T12:49:11;96761.53;;;18.43;27.49
42771;BME280;28426;42.872;25.314;2023-04-29T12:51:42;96755.97;;;18.33;27.43
42771;BME280;28426;42.872;25.314;2023-04-29T12:54:12;96761.19;;;18.23;28.25
42771;BME280;28426;42.872;25.314;2023-04-29T12:56:43;96759.13;;;18.13;28.08
42771;BME280;28426;42.872;25.314;2023-04-29T12:59:18;96759.81;;;18.08;28.21
42771;BME280;28426;42.872;25.314;2023-04-29T13:01:49;96752.75;;;18.07;28.34
42771;BME280;28426;42.872;25.314;2023-04-29T13:04:20;96748.09;;;18.02;28.29
42771;BME280;28426;42.872;25.314;2023-04-29T13:06:51;96745.66;;;18.01;28.45
42771;BME280;28426;42.872;25.314;2023-04-29T13:09:27;96740.81;;;18.03;28.87
42771;BME280;28426;42.872;25.314;2023-04-29T13:11:58;96747.16;;;18.09;28.94
42771;BME280;28426;42.872;25.314;2023-04-29T13:14:32;96738.91;;;18.15;28.99
42771;BME280;28426;42.872;25.314;2023-04-29T13:17:02;96739.00;;;18.21;28.39
42771;BME280;28426;42.872;25.314;2023-04-29T13:19:34;96739.06;;;18.26;29.11
42771;BME280;28426;42.872;25.314;2023-04-29T13:22:17;96745.16;;;18.33;28.67
42771;BME280;28426;42.872;25.314;2023-04-29T13:24:48;96746.78;;;18.34;27.65
42771;BME280;28426;42.872;25.314;2023-04-29T13:27:20;96744.81;;;18.29;27.32
42771;BME280;28426;42.872;25.314;2023-04-29T13:29:53;96745.88;;;18.28;27.50